Allentown, PA (18103)

9:41 AM EDT on September 02, 2015 (GMT -0400)
South Filmore Street | | Change Station
CLOSE
Current Station
Personal Weather Station
Location: Allentown, PA
Elevation: 341 ft
Nearby Weather Stations

Elev 341 ft 40.59 °N, 75.45 °W | Updated 6 minutes ago

Scattered Clouds
Scattered Clouds
81.3 °F
Feels Like 86 °F
N
0.0
Wind Variable Wind from ESE

Today
High -- | Low -- °F
--% Chance of Precip.
Yesterday
High -- | Low -- °F
Precip. -- in
6:29 AM 7:32 PM
Waning Gibbous, 80% visible
Pressure 30.05 in
Visibility 7.0 miles
Clouds Scattered Clouds 6000 ft
Heat Index 86 °F
Dew Point 73 °F
Humidity 75%
Rainfall 0.00 in
Snow Depth Not available.
UV 3 out of 12
Pollen 9.50 out of 12
Air Quality Not available.
Flu Activity Not available.
METAR KXLL 021335Z AUTO 00000KT 7SM SCT060 25/20 A3005 RMK AO2
Pressure 30.05 in
Visibility 7.0 miles
Clouds Scattered Clouds 6000 ft
Heat Index 86 °F
Dew Point 73 °F
Humidity 75%
Rainfall 0.00 in
Snow Depth Not available.
UV 3 out of 12
Pollen 9.50 out of 12
Air Quality Not available.
Flu Activity Not available.
METAR KXLL 021335Z AUTO 00000KT 7SM SCT060 25/20 A3005 RMK AO2

10-Day Weather Forecast

×

Almanac

Astronomy

Sep. 02, 2015 Rise Set
Actual Time
Civil Twilight
Nautical Twilight
Astronomical Twilight
Moon
Length of Visible Light
Length of Day
Tomorrow will be .
, % of the Moon is Illuminated

Today's Extremes

State Highs State Lows

Community

WunderPhotos

Upload Photos

1,851,754 photos uploaded!

WunderBlogs® & News

Nearby

Air Quality

  Air Quality AQ Index Pollutant
Not available.

Snow Depth

Station Depth Elevation

Earthquake Activity

City Distance Mag. Time & Date
Minimum magnitude displayed is 2.5.

Coastal Water Temperatures

Place Temperature

Stations

Nearby Weather Stations

Station Location Temp. Windchill Dew Point Humidity Wind Precip. Elev Updated Type